aviador You're here:

KPBG Decoded Metar

PLATTSBURGH in NY, USA
Report Time2017-06-25 05:53:00
UTC Time2017-06-25 06:55:40
Flight Rules vfr VFR
Wind280° at 05 kt
W.Decomp.*RWY 35: 2.9 kt HW 4.1 kt LCW
W.Rank280° ranks 15
Current wind is below 280° avg. (5.9)
Visibility9999 m
Phenomena:N/A
Clouds:Broken 100 Hf
Expected CloudBase > 2,000 ft AGL from Temp-Dew spread
Ceiling10,000 ft
Temp17°C (ISA +2)
Dew Point12°C (73% RH)
AAT15.9°C
QNH1011 hPa
Density Alt784 ft
Elevation236 ft
Report Wrong Elevation
Raw Report
METAR KPBG 250553Z AUTO 28005KT 10SM BKN100 17/12 A2985 RMK AO2 SLP109
T01670117 10239 20161 53009=

Extra information for KPBG:More info

Metar Taf Metar & Taf Last 4 Metars F.Rules Stats Wind Profile Meteogram Temp Stats Airport Information Weather charts Add Link Nearby VenuesMetar ALERT Operation Metar Decoded Social comments

AIRNAV info for KPBG